메인 페이지
METAR-TAF:

METAR-TAF

공항 :

데라둔, 인도

위도: 30-11-23N, 경도: 78-10-49E, 고도: 558m

현재 날씨관측

예보는 38분 전, 12:00시(UTC)에 발표되었습니다.
4kt
온도 15°C
습도 82%
기압 1015 hPa
시정: 2500m
고도 3000ft 상공 구름 보통
박무

METAR: VIDN 111200Z 08004KT 2500 BR SCT030 15/12 Q1015

시각: 18:08 (12:38 UTC)


TAF: 누락

4,000개 이상의 공항 관측 자료 및 예보 (METAR 및 TAF 보고).

지도상에서 검색 가능한 기상관측소가 노란 점과 빨간 점으로 표시되어 있습니다.

기상관측소 명을 보려면 표시 위로 마우스를 이동하세요.

날씨 관측과 예보를 보려면 클릭하세요.

지도 변경 : 확대하려면 엑스 표시가 있는 녹색 버튼, 축소하려면 빼기 표시가 있는 녹색 버튼, 다음 페이지의 지도를 보려면 녹색 화살표를 클릭하세요.


METAR-TAF: